Time;durP1;ratioP1;P1;durP2;ratioP2;P2;SDS_P1;SDS_P2;PMS_P1;PMS_P2;Temp;Humidity;BMP_temperature;BMP_pressure;BME280_temperature;BME280_humidity;BME280_pressure;Samples;Min_cycle;Max_cycle;Signal;HPM_P1;HPM_P2
2023/04/13 00:01:39;0.00;0.00;0.62;0.00;0.00;0.62;2.30;1.40;;;23.90;22.20;;;;;;2276515;60;20420;-62
2023/04/13 00:04:25;0.00;0.00;0.62;0.00;0.00;0.62;2.60;1.60;;;23.90;22.20;;;;;;2276547;60;20369;-62
2023/04/13 00:07:15;0.00;0.00;0.62;0.00;0.00;0.62;2.60;2.07;;;23.90;22.20;;;;;;2276193;60;21230;-62
2023/04/13 00:10:02;0.00;0.00;0.62;0.00;0.00;0.62;3.37;1.97;;;23.90;22.20;;;;;;2276167;60;20412;-65
2023/04/13 00:12:49;0.00;0.00;0.62;0.00;0.00;0.62;2.23;1.77;;;23.90;22.20;;;;;;2276719;60;20971;-64
2023/04/13 00:15:35;0.00;0.00;0.62;0.00;0.00;0.62;2.53;1.73;;;23.90;22.20;;;;;;2276132;60;20484;-60
2023/04/13 00:18:20;0.00;0.00;0.62;0.00;0.00;0.62;2.40;1.70;;;23.90;22.30;;;;;;2276591;60;20430;-63
2023/04/13 00:21:06;0.00;0.00;0.62;0.00;0.00;0.62;2.90;2.20;;;23.80;22.10;;;;;;2276336;60;20358;-62
2023/04/13 00:23:52;0.00;0.00;0.62;0.00;0.00;0.62;3.00;2.10;;;23.90;22.20;;;;;;2276860;60;20357;-63
2023/04/13 00:26:37;0.00;0.00;0.62;0.00;0.00;0.62;1.90;1.40;;;23.90;22.20;;;;;;2276677;60;20356;-63
2023/04/13 00:29:26;0.00;0.00;0.62;0.00;0.00;0.62;2.20;1.57;;;23.90;22.20;;;;;;2272491;60;20916;-62
2023/04/13 00:32:11;0.00;0.00;0.62;0.00;0.00;0.62;1.90;1.27;;;23.90;22.20;;;;;;2273119;60;20411;-64
2023/04/13 00:34:55;0.00;0.00;0.62;0.00;0.00;0.62;2.23;1.40;;;23.80;22.20;;;;;;2273466;60;20399;-65
2023/04/13 00:37:41;0.00;0.00;0.62;0.00;0.00;0.62;2.33;1.83;;;23.80;22.20;;;;;;2272695;60;21035;-63
2023/04/13 00:40:26;0.00;0.00;0.62;0.00;0.00;0.62;2.13;1.43;;;23.80;22.20;;;;;;2276354;60;20357;-64
2023/04/13 00:43:11;0.00;0.00;0.62;0.00;0.00;0.62;2.30;1.80;;;23.80;22.20;;;;;;2276485;60;20389;-63
2023/04/13 00:45:57;0.00;0.00;0.62;0.00;0.00;0.62;2.10;1.50;;;23.80;22.20;;;;;;2276474;60;20402;-61
2023/04/13 00:48:44;0.00;0.00;0.62;0.00;0.00;0.62;2.00;1.60;;;23.80;22.20;;;;;;2276177;60;20422;-62
2023/04/13 00:51:29;0.00;0.00;0.62;0.00;0.00;0.62;2.23;1.50;;;23.80;22.20;;;;;;2276455;60;20857;-62
2023/04/13 00:54:15;0.00;0.00;0.62;0.00;0.00;0.62;1.90;1.53;;;23.80;22.20;;;;;;2272974;60;20369;-64
2023/04/13 00:57:00;0.00;0.00;0.62;0.00;0.00;0.62;2.33;1.60;;;23.80;22.20;;;;;;2276578;60;20778;-62
2023/04/13 00:59:48;0.00;0.00;0.62;0.00;0.00;0.62;2.07;1.40;;;23.80;22.20;;;;;;2275693;60;20369;-64
2023/04/13 01:02:35;0.00;0.00;0.62;0.00;0.00;0.62;1.90;1.20;;;23.80;22.20;;;;;;2276448;60;20427;-63
2023/04/13 01:05:20;0.00;0.00;0.62;0.00;0.00;0.62;2.20;1.43;;;23.80;22.20;;;;;;2276484;60;20358;-63
2023/04/13 01:08:14;0.00;0.00;0.62;0.00;0.00;0.62;2.00;1.47;;;23.80;22.20;;;;;;2273262;60;20576;-62
2023/04/13 01:11:04;0.00;0.00;0.62;0.00;0.00;0.62;1.93;1.43;;;23.80;22.20;;;;;;2272829;60;20496;-62
2023/04/13 01:14:05;0.00;0.00;0.62;0.00;0.00;0.62;2.77;1.70;;;23.80;22.20;;;;;;2272936;60;20361;-63
2023/04/13 01:16:56;0.00;0.00;0.62;0.00;0.00;0.62;1.93;1.30;;;23.70;22.10;;;;;;2273014;60;20418;-62
2023/04/13 01:19:55;0.00;0.00;0.62;0.00;0.00;0.62;2.07;1.50;;;23.80;22.20;;;;;;2272922;60;20361;-64
2023/04/13 01:22:45;0.00;0.00;0.62;0.00;0.00;0.62;1.63;1.27;;;23.80;22.20;;;;;;2272831;60;20397;-64
2023/04/13 01:25:38;0.00;0.00;0.62;0.00;0.00;0.62;1.97;1.30;;;23.80;22.20;;;;;;2273187;60;20365;-64
2023/04/13 01:28:26;0.00;0.00;0.62;0.00;0.00;0.62;2.30;1.53;;;23.80;22.20;;;;;;2276169;60;20558;-64
2023/04/13 01:31:12;0.00;0.00;0.62;0.00;0.00;0.62;1.90;1.30;;;23.80;22.20;;;;;;2278850;60;20372;-62
2023/04/13 01:33:57;0.00;0.00;0.62;0.00;0.00;0.62;2.13;1.20;;;23.70;22.20;;;;;;2277090;60;20755;-62
2023/04/13 01:36:44;0.00;0.00;0.62;0.00;0.00;0.62;1.80;1.20;;;23.80;22.30;;;;;;2276883;60;20356;-63
2023/04/13 01:39:31;0.00;0.00;0.62;0.00;0.00;0.62;1.90;1.20;;;23.80;22.30;;;;;;2276797;60;20444;-61
2023/04/13 01:42:23;0.00;0.00;0.62;0.00;0.00;0.62;1.70;1.10;;;23.80;22.30;;;;;;2277354;60;20426;-63
2023/04/13 01:45:16;0.00;0.00;0.62;0.00;0.00;0.62;1.60;0.97;;;23.70;22.20;;;;;;2276976;60;20352;-63
2023/04/13 01:48:06;0.00;0.00;0.62;0.00;0.00;0.62;1.83;1.13;;;23.70;22.20;;;;;;2277180;60;20384;-62
2023/04/13 01:51:17;0.00;0.00;0.62;0.00;0.00;0.62;2.30;1.30;;;23.80;22.30;;;;;;2276526;60;20353;-62
2023/04/13 01:54:10;0.00;0.00;0.62;0.00;0.00;0.62;1.70;1.10;;;23.70;22.20;;;;;;2277030;60;20344;-62
2023/04/13 01:56:58;0.00;0.00;0.62;0.00;0.00;0.62;1.87;1.17;;;23.70;22.20;;;;;;2277367;60;21067;-61
2023/04/13 01:59:44;0.00;0.00;0.62;0.00;0.00;0.62;2.70;1.40;;;23.70;22.20;;;;;;2276674;60;20380;-63
2023/04/13 02:02:36;0.00;0.00;0.62;0.00;0.00;0.62;1.60;1.00;;;23.70;22.20;;;;;;2276939;60;20782;-64
2023/04/13 02:05:21;0.00;0.00;0.62;0.00;0.00;0.62;2.00;1.00;;;23.80;22.30;;;;;;2276907;60;20619;-62
2023/04/13 02:08:08;0.00;0.00;0.62;0.00;0.00;0.62;1.83;1.10;;;23.70;22.20;;;;;;2276708;60;20829;-62
2023/04/13 02:10:58;0.00;0.00;0.62;0.00;0.00;0.62;2.40;1.40;;;23.80;22.30;;;;;;2277032;60;20387;-63
2023/04/13 02:13:44;0.00;0.00;0.62;0.00;0.00;0.62;2.10;1.10;;;23.80;22.30;;;;;;2276395;60;20352;-62
2023/04/13 02:16:33;0.00;0.00;0.62;0.00;0.00;0.62;1.80;1.30;;;23.80;22.30;;;;;;2276924;60;20380;-63
2023/04/13 02:19:20;0.00;0.00;0.62;0.00;0.00;0.62;1.53;1.00;;;23.80;22.20;;;;;;2276702;60;20804;-63
2023/04/13 02:22:06;0.00;0.00;0.62;0.00;0.00;0.62;1.63;1.00;;;23.80;22.30;;;;;;2276816;60;20400;-62
2023/04/13 02:24:51;0.00;0.00;0.62;0.00;0.00;0.62;1.60;1.20;;;23.80;22.20;;;;;;2280364;60;20372;-63
2023/04/13 02:27:35;0.00;0.00;0.62;0.00;0.00;0.62;1.50;1.00;;;23.80;22.20;;;;;;2276669;60;20380;-63
2023/04/13 02:30:20;0.00;0.00;0.62;0.00;0.00;0.62;1.80;1.17;;;23.80;22.20;;;;;;2279346;60;20473;-63
2023/04/13 02:33:08;0.00;0.00;0.62;0.00;0.00;0.62;1.70;1.20;;;23.70;22.20;;;;;;2280379;60;20398;-64
2023/04/13 02:35:55;0.00;0.00;0.62;0.00;0.00;0.62;1.70;1.00;;;23.80;22.20;;;;;;2276671;60;20357;-63
2023/04/13 02:38:41;0.00;0.00;0.62;0.00;0.00;0.62;1.40;0.87;;;23.80;22.20;;;;;;2276904;60;20939;-62
2023/04/13 02:41:55;0.00;0.00;0.62;0.00;0.00;0.62;1.80;1.17;;;23.80;22.20;;;;;;2279771;60;20399;-63
2023/04/13 02:44:40;0.00;0.00;0.62;0.00;0.00;0.62;1.67;1.20;;;23.80;22.20;;;;;;2277046;60;20398;-64
2023/04/13 02:47:26;0.00;0.00;0.62;0.00;0.00;0.62;1.60;1.10;;;23.80;22.20;;;;;;2277099;60;20376;-63
2023/04/13 02:50:12;0.00;0.00;0.62;0.00;0.00;0.62;1.67;1.13;;;23.80;22.20;;;;;;2276130;60;20937;-64
2023/04/13 02:53:03;0.00;0.00;0.62;0.00;0.00;0.62;1.60;0.90;;;23.80;22.20;;;;;;2277185;60;20413;-63
2023/04/13 02:55:52;0.00;0.00;0.62;0.00;0.00;0.62;1.93;1.17;;;23.70;22.10;;;;;;2277843;60;20349;-68
2023/04/13 02:58:38;0.00;0.00;0.62;0.00;0.00;0.62;1.50;0.93;;;23.70;22.10;;;;;;2277310;60;20384;-65
2023/04/13 03:01:28;0.00;0.00;0.62;0.00;0.00;0.62;1.73;0.93;;;23.70;22.10;;;;;;2277938;60;20403;-62
2023/04/13 03:04:13;0.00;0.00;0.62;0.00;0.00;0.62;2.77;1.00;;;23.70;22.00;;;;;;2277235;60;20360;-61
2023/04/13 03:06:58;0.00;0.00;0.62;0.00;0.00;0.62;1.60;1.00;;;23.70;22.00;;;;;;2277896;60;20469;-63
2023/04/13 03:09:47;0.00;0.00;0.62;0.00;0.00;0.62;1.40;0.80;;;23.70;22.00;;;;;;2277418;60;20440;-65
2023/04/13 03:12:34;0.00;0.00;0.62;0.00;0.00;0.62;1.60;1.07;;;23.70;22.00;;;;;;2274494;60;20382;-63
2023/04/13 03:15:19;0.00;0.00;0.62;0.00;0.00;0.62;2.00;1.07;;;23.70;22.10;;;;;;2277687;60;20390;-62
2023/04/13 03:18:05;0.00;0.00;0.62;0.00;0.00;0.62;1.50;1.00;;;23.70;22.00;;;;;;2277630;60;20430;-63
2023/04/13 03:20:51;0.00;0.00;0.62;0.00;0.00;0.62;1.57;0.93;;;23.70;22.00;;;;;;2276977;60;20376;-63
2023/04/13 03:23:37;0.00;0.00;0.62;0.00;0.00;0.62;1.70;0.90;;;23.70;22.10;;;;;;2277461;60;20465;-63
2023/04/13 03:26:28;0.00;0.00;0.62;0.00;0.00;0.62;1.50;1.13;;;23.70;22.10;;;;;;2277328;60;20398;-63
2023/04/13 03:29:17;0.00;0.00;0.62;0.00;0.00;0.62;1.67;1.07;;;23.70;22.00;;;;;;2277221;60;20373;-62
2023/04/13 03:32:04;0.00;0.00;0.62;0.00;0.00;0.62;1.47;1.03;;;23.70;22.10;;;;;;2277451;60;20353;-63
2023/04/13 03:34:51;0.00;0.00;0.62;0.00;0.00;0.62;1.50;1.10;;;23.70;22.00;;;;;;2277240;60;20928;-64
2023/04/13 03:37:41;0.00;0.00;0.62;0.00;0.00;0.62;1.60;0.90;;;23.70;22.00;;;;;;2277440;60;20430;-63
2023/04/13 03:40:34;0.00;0.00;0.62;0.00;0.00;0.62;1.40;0.90;;;23.70;22.10;;;;;;2277443;60;20896;-63
2023/04/13 03:43:20;0.00;0.00;0.62;0.00;0.00;0.62;1.47;1.00;;;23.60;22.00;;;;;;2280458;60;20937;-62
2023/04/13 03:46:16;0.00;0.00;0.62;0.00;0.00;0.62;1.50;0.90;;;23.70;22.10;;;;;;2277462;60;20896;-63
2023/04/13 03:49:01;0.00;0.00;0.62;0.00;0.00;0.62;1.77;1.20;;;23.60;22.00;;;;;;2277012;60;20398;-62
2023/04/13 03:51:47;0.00;0.00;0.62;0.00;0.00;0.62;1.80;0.90;;;23.60;22.00;;;;;;2277294;60;20405;-63
2023/04/13 03:54:32;0.00;0.00;0.62;0.00;0.00;0.62;1.60;1.00;;;23.60;22.00;;;;;;2277330;60;20391;-62
2023/04/13 03:57:18;0.00;0.00;0.62;0.00;0.00;0.62;1.40;0.83;;;23.60;22.00;;;;;;2277002;60;20388;-62
2023/04/13 04:00:12;0.00;0.00;0.62;0.00;0.00;0.62;1.60;0.87;;;23.60;22.00;;;;;;2276831;60;20348;-62
2023/04/13 04:03:16;0.00;0.00;0.62;0.00;0.00;0.62;1.30;0.77;;;23.60;22.00;;;;;;2277149;60;20407;-64
2023/04/13 04:06:14;0.00;0.00;0.62;0.00;0.00;0.62;1.30;0.90;;;23.60;22.00;;;;;;2277416;60;20410;-65
2023/04/13 04:09:05;0.00;0.00;0.62;0.00;0.00;0.62;1.40;0.90;;;23.60;22.00;;;;;;2276848;60;20514;-63
2023/04/13 04:12:08;0.00;0.00;0.62;0.00;0.00;0.62;1.40;0.80;;;23.60;22.10;;;;;;2277061;60;20394;-62
2023/04/13 04:14:59;0.00;0.00;0.62;0.00;0.00;0.62;1.80;1.13;;;23.60;22.00;;;;;;2277271;60;20925;-61
2023/04/13 04:17:50;0.00;0.00;0.62;0.00;0.00;0.62;1.47;0.87;;;23.50;22.00;;;;;;2277636;60;20379;-61
2023/04/13 04:20:34;0.00;0.00;0.62;0.00;0.00;0.62;1.80;1.10;;;23.50;22.00;;;;;;2277033;60;20421;-63
2023/04/13 04:23:21;0.00;0.00;0.62;0.00;0.00;0.62;1.40;0.80;;;23.50;22.00;;;;;;2277444;60;20540;-63
2023/04/13 04:26:13;0.00;0.00;0.62;0.00;0.00;0.62;1.50;0.70;;;23.50;22.00;;;;;;2277373;60;20357;-63
2023/04/13 04:32:09;0.00;0.00;0.62;0.00;0.00;0.62;1.30;0.80;;;23.50;22.00;;;;;;2265840;61;20902;-62
2023/04/13 04:34:57;0.00;0.00;0.62;0.00;0.00;0.62;1.53;0.90;;;23.50;22.00;;;;;;2260570;61;20438;-64
2023/04/13 04:37:43;0.00;0.00;0.62;0.00;0.00;0.62;1.50;0.90;;;23.50;22.00;;;;;;2262382;61;20864;-61
2023/04/13 04:40:37;0.00;0.00;0.62;0.00;0.00;0.62;1.80;1.10;;;23.50;22.00;;;;;;2267548;61;20363;-62
2023/04/13 04:43:26;0.00;0.00;0.62;0.00;0.00;0.62;1.53;1.00;;;23.50;22.00;;;;;;2267813;61;20440;-62
2023/04/13 04:46:14;0.00;0.00;0.62;0.00;0.00;0.62;2.07;0.90;;;23.50;22.10;;;;;;2268204;61;20503;-61
2023/04/13 04:49:02;0.00;0.00;0.62;0.00;0.00;0.62;1.60;1.00;;;23.50;22.60;;;;;;2267193;61;20378;-63
2023/04/13 04:51:50;0.00;0.00;0.62;0.00;0.00;0.62;2.80;0.90;;;23.50;22.10;;;;;;2267925;61;20409;-65
2023/04/13 04:54:36;0.00;0.00;0.62;0.00;0.00;0.62;1.37;0.80;;;23.40;22.00;;;;;;2267943;61;20949;-63
2023/04/13 04:57:21;0.00;0.00;0.62;0.00;0.00;0.62;1.53;0.90;;;23.40;22.00;;;;;;2267533;61;20441;-62
2023/04/13 05:00:16;0.00;0.00;0.62;0.00;0.00;0.62;1.70;0.90;;;23.40;22.00;;;;;;2267586;61;20449;-62
2023/04/13 05:03:15;0.00;0.00;0.62;0.00;0.00;0.62;1.60;0.80;;;23.40;22.60;;;;;;2267542;61;20390;-62
2023/04/13 05:06:05;0.00;0.00;0.62;0.00;0.00;0.62;1.67;0.83;;;23.40;22.00;;;;;;2267813;61;20401;-63
2023/04/13 05:08:53;0.00;0.00;0.62;0.00;0.00;0.62;1.40;0.80;;;23.40;22.00;;;;;;2267402;61;20418;-62
2023/04/13 05:11:38;0.00;0.00;0.62;0.00;0.00;0.62;1.57;0.90;;;23.40;22.00;;;;;;2267708;61;20432;-64
2023/04/13 05:14:26;0.00;0.00;0.62;0.00;0.00;0.62;1.83;0.90;;;23.40;22.00;;;;;;2267613;61;20927;-62
2023/04/13 05:17:11;0.00;0.00;0.62;0.00;0.00;0.62;2.90;1.00;;;23.40;22.00;;;;;;2267550;61;20841;-63
2023/04/13 05:19:57;0.00;0.00;0.62;0.00;0.00;0.62;1.50;0.87;;;23.40;22.00;;;;;;2267292;61;20814;-67
2023/04/13 05:22:54;0.00;0.00;0.62;0.00;0.00;0.62;1.70;0.80;;;23.40;22.00;;;;;;2267931;61;20461;-64
2023/04/13 05:25:40;0.00;0.00;0.62;0.00;0.00;0.62;1.90;1.00;;;23.40;22.10;;;;;;2267435;61;20413;-62
2023/04/13 05:28:34;0.00;0.00;0.62;0.00;0.00;0.62;1.43;0.80;;;23.40;22.00;;;;;;2267178;61;20784;-63
2023/04/13 05:31:19;0.00;0.00;0.62;0.00;0.00;0.62;1.90;1.20;;;23.40;22.10;;;;;;2268199;61;20772;-62
2023/04/13 05:34:03;0.00;0.00;0.62;0.00;0.00;0.62;1.73;1.10;;;23.40;22.10;;;;;;2264261;61;20912;-61
2023/04/13 05:36:49;0.00;0.00;0.62;0.00;0.00;0.62;1.63;0.83;;;23.40;22.00;;;;;;2264855;61;20827;-65
2023/04/13 05:39:35;0.00;0.00;0.62;0.00;0.00;0.62;1.83;1.00;;;23.40;22.10;;;;;;2264724;61;20367;-63
2023/04/13 05:42:23;0.00;0.00;0.62;0.00;0.00;0.62;3.10;1.40;;;23.40;22.00;;;;;;2264826;61;20452;-64
2023/04/13 05:45:09;0.00;0.00;0.62;0.00;0.00;0.62;1.70;1.00;;;23.40;22.10;;;;;;2264646;61;20409;-63
2023/04/13 05:48:01;0.00;0.00;0.62;0.00;0.00;0.62;2.13;1.53;;;23.30;22.00;;;;;;2264492;61;20426;-63
2023/04/13 05:50:46;0.00;0.00;0.62;0.00;0.00;0.62;1.80;1.00;;;23.30;22.00;;;;;;2264512;61;20371;-63
2023/04/13 05:53:32;0.00;0.00;0.62;0.00;0.00;0.62;1.53;0.80;;;23.30;22.00;;;;;;2264536;61;20390;-63
2023/04/13 05:56:16;0.00;0.00;0.62;0.00;0.00;0.62;1.60;1.00;;;23.30;22.00;;;;;;2267492;61;20451;-63
2023/04/13 05:59:03;0.00;0.00;0.62;0.00;0.00;0.62;1.50;0.90;;;23.30;22.00;;;;;;2267466;61;20440;-64
2023/04/13 06:01:49;0.00;0.00;0.62;0.00;0.00;0.62;1.70;1.00;;;23.30;22.00;;;;;;2264801;61;20367;-62
2023/04/13 06:04:34;0.00;0.00;0.62;0.00;0.00;0.62;1.80;1.20;;;23.30;22.00;;;;;;2264925;61;20390;-63
2023/04/13 06:07:21;0.00;0.00;0.62;0.00;0.00;0.62;1.60;1.00;;;23.30;22.00;;;;;;2268271;61;20941;-62
2023/04/13 06:10:07;0.00;0.00;0.62;0.00;0.00;0.62;1.93;0.97;;;23.30;22.00;;;;;;2264312;61;20696;-63
2023/04/13 06:12:52;0.00;0.00;0.62;0.00;0.00;0.62;2.17;1.17;;;23.30;22.00;;;;;;2264561;61;20447;-63
2023/04/13 06:15:39;0.00;0.00;0.62;0.00;0.00;0.62;1.80;1.07;;;23.30;22.00;;;;;;2264924;61;20509;-62
2023/04/13 06:18:25;0.00;0.00;0.62;0.00;0.00;0.62;2.40;1.70;;;23.30;22.00;;;;;;2267817;61;20383;-64
2023/04/13 06:21:11;0.00;0.00;0.62;0.00;0.00;0.62;2.00;1.20;;;23.30;22.00;;;;;;2264168;61;20417;-62
2023/04/13 06:23:56;0.00;0.00;0.62;0.00;0.00;0.62;1.73;1.20;;;23.30;22.00;;;;;;2267352;61;20394;-62
2023/04/13 06:26:52;0.00;0.00;0.62;0.00;0.00;0.62;1.77;1.20;;;23.30;22.00;;;;;;2267830;61;20901;-61
2023/04/13 06:29:37;0.00;0.00;0.62;0.00;0.00;0.62;2.23;1.33;;;23.30;22.00;;;;;;2268202;61;20363;-63
2023/04/13 06:32:28;0.00;0.00;0.62;0.00;0.00;0.62;1.87;1.17;;;23.30;22.00;;;;;;2265000;61;20351;-64
2023/04/13 06:35:14;0.00;0.00;0.62;0.00;0.00;0.62;1.97;1.30;;;23.30;22.00;;;;;;2268228;61;20420;-62
2023/04/13 06:38:02;0.00;0.00;0.62;0.00;0.00;0.62;2.20;1.30;;;23.30;22.10;;;;;;2265854;61;20402;-63
2023/04/13 06:41:01;0.00;0.00;0.62;0.00;0.00;0.62;2.63;1.50;;;23.30;22.00;;;;;;2264943;61;20404;-62
2023/04/13 06:43:47;0.00;0.00;0.62;0.00;0.00;0.62;3.03;2.17;;;23.30;22.10;;;;;;2265422;61;20414;-60
2023/04/13 06:46:53;0.00;0.00;0.62;0.00;0.00;0.62;2.87;2.17;;;23.30;22.10;;;;;;2268327;61;20409;-62
2023/04/13 06:49:41;0.00;0.00;0.62;0.00;0.00;0.62;2.47;1.87;;;23.30;22.00;;;;;;2262146;61;20429;-59
2023/04/13 06:52:26;0.00;0.00;0.62;0.00;0.00;0.62;2.80;1.80;;;23.30;22.00;;;;;;2263011;61;20367;-64
2023/04/13 06:55:12;0.00;0.00;0.62;0.00;0.00;0.62;2.90;2.20;;;23.30;22.10;;;;;;2263776;61;20359;-65
2023/04/13 06:57:58;0.00;0.00;0.62;0.00;0.00;0.62;3.17;2.43;;;23.30;22.00;;;;;;2261288;61;20442;-65
2023/04/13 07:00:42;0.00;0.00;0.62;0.00;0.00;0.62;4.00;2.90;;;23.30;22.00;;;;;;2263940;61;20409;-64
2023/04/13 07:03:27;0.00;0.00;0.62;0.00;0.00;0.62;2.97;2.40;;;23.30;22.10;;;;;;2263861;61;20915;-62
2023/04/13 07:06:14;0.00;0.00;0.62;0.00;0.00;0.62;3.37;2.57;;;23.30;22.60;;;;;;2264657;61;20784;-61
2023/04/13 07:08:59;0.00;0.00;0.62;0.00;0.00;0.62;3.80;2.90;;;23.30;22.10;;;;;;2260813;61;20715;-62
2023/04/13 07:11:45;0.00;0.00;0.62;0.00;0.00;0.62;4.33;3.20;;;23.30;22.10;;;;;;2263826;61;20382;-62
2023/04/13 07:14:33;0.00;0.00;0.62;0.00;0.00;0.62;4.80;3.47;;;23.30;22.10;;;;;;2264163;61;20371;-61
2023/04/13 07:17:18;0.00;0.00;0.62;0.00;0.00;0.62;4.23;2.93;;;23.30;22.10;;;;;;2260856;61;20392;-62
2023/04/13 07:20:06;0.00;0.00;0.62;0.00;0.00;0.62;4.57;3.50;;;23.30;22.10;;;;;;2264141;61;20368;-60
2023/04/13 07:22:52;0.00;0.00;0.62;0.00;0.00;0.62;4.33;3.67;;;23.30;22.10;;;;;;2261529;61;20395;-62
2023/04/13 07:25:37;0.00;0.00;0.62;0.00;0.00;0.62;5.43;3.93;;;23.30;22.10;;;;;;2264202;61;20372;-61
2023/04/13 07:28:26;0.00;0.00;0.62;0.00;0.00;0.62;4.80;3.70;;;23.30;22.10;;;;;;2264089;61;20402;-63
2023/04/13 07:31:15;0.00;0.00;0.62;0.00;0.00;0.62;4.30;3.90;;;23.30;22.10;;;;;;2263586;61;20375;-60
2023/04/13 07:34:04;0.00;0.00;0.62;0.00;0.00;0.62;4.80;3.97;;;23.30;22.10;;;;;;2261001;61;20356;-62
2023/04/13 07:36:55;0.00;0.00;0.62;0.00;0.00;0.62;6.17;4.60;;;23.30;22.10;;;;;;2261449;61;20400;-63
2023/04/13 07:39:42;0.00;0.00;0.62;0.00;0.00;0.62;5.43;4.50;;;23.30;22.10;;;;;;2263384;61;20356;-64
2023/04/13 07:42:28;0.00;0.00;0.62;0.00;0.00;0.62;5.00;4.37;;;23.30;22.10;;;;;;2261271;61;20422;-61
2023/04/13 07:45:14;0.00;0.00;0.62;0.00;0.00;0.62;5.83;3.97;;;23.30;22.10;;;;;;2263668;61;20613;-64
2023/04/13 07:47:59;0.00;0.00;0.62;0.00;0.00;0.62;5.17;4.37;;;23.30;22.10;;;;;;2263986;61;20936;-62
2023/04/13 07:50:45;0.00;0.00;0.62;0.00;0.00;0.62;5.73;4.70;;;23.30;22.10;;;;;;2263521;61;20900;-62
2023/04/13 07:53:35;0.00;0.00;0.62;0.00;0.00;0.62;6.40;5.27;;;23.30;22.10;;;;;;2265251;61;20817;-62
2023/04/13 07:56:22;0.00;0.00;0.62;0.00;0.00;0.62;5.33;4.50;;;23.30;22.60;;;;;;2265315;61;20359;-62
2023/04/13 07:59:09;0.00;0.00;0.62;0.00;0.00;0.62;5.93;5.17;;;23.30;22.10;;;;;;2267912;61;20383;-62
2023/04/13 08:01:54;0.00;0.00;0.62;0.00;0.00;0.62;7.03;4.93;;;23.30;22.20;;;;;;2267768;61;20937;-62
2023/04/13 08:04:40;0.00;0.00;0.62;0.00;0.00;0.62;6.93;4.90;;;23.30;22.10;;;;;;2267860;61;20597;-63
2023/04/13 08:07:28;0.00;0.00;0.62;0.00;0.00;0.62;6.33;4.97;;;23.30;22.10;;;;;;2267486;61;20405;-59
2023/04/13 08:10:13;0.00;0.00;0.62;0.00;0.00;0.62;6.80;5.40;;;23.30;22.10;;;;;;2264703;61;20421;-66
2023/04/13 08:12:59;0.00;0.00;0.62;0.00;0.00;0.62;5.70;4.80;;;23.30;22.10;;;;;;2267782;61;20355;-64
2023/04/13 08:15:44;0.00;0.00;0.62;0.00;0.00;0.62;5.97;5.10;;;23.30;22.60;;;;;;2264978;61;20395;-61
2023/04/13 08:18:31;0.00;0.00;0.62;0.00;0.00;0.62;6.10;4.90;;;23.30;22.10;;;;;;2264891;61;20392;-61
2023/04/13 08:21:16;0.00;0.00;0.62;0.00;0.00;0.62;5.70;4.53;;;23.30;22.10;;;;;;2688203;45;20446;-61
2023/04/13 08:24:05;0.00;0.00;0.62;0.00;0.00;0.62;5.67;5.07;;;23.30;22.20;;;;;;2267985;61;20954;-62
2023/04/13 08:26:53;0.00;0.00;0.62;0.00;0.00;0.62;6.93;5.70;;;23.30;22.20;;;;;;2268269;61;20829;-62
2023/04/13 08:29:40;0.00;0.00;0.62;0.00;0.00;0.62;7.67;5.60;;;23.30;22.10;;;;;;2264526;61;20367;-63
2023/04/13 08:32:25;0.00;0.00;0.62;0.00;0.00;0.62;7.30;5.87;;;23.40;22.20;;;;;;2265130;61;20395;-61
2023/04/13 08:35:10;0.00;0.00;0.62;0.00;0.00;0.62;6.23;5.00;;;23.30;22.10;;;;;;2264865;61;20411;-62
2023/04/13 08:37:55;0.00;0.00;0.62;0.00;0.00;0.62;6.13;5.53;;;23.30;22.10;;;;;;2264872;61;20458;-62
2023/04/13 08:40:40;0.00;0.00;0.62;0.00;0.00;0.62;6.23;5.00;;;23.30;22.10;;;;;;2267558;61;20428;-62
2023/04/13 08:43:34;0.00;0.00;0.62;0.00;0.00;0.62;6.43;5.30;;;23.30;22.10;;;;;;2268162;61;20398;-62
2023/04/13 08:46:21;0.00;0.00;0.62;0.00;0.00;0.62;6.07;5.00;;;23.30;22.10;;;;;;2264700;61;20379;-62
2023/04/13 08:49:10;0.00;0.00;0.62;0.00;0.00;0.62;6.03;5.37;;;23.30;22.10;;;;;;2264445;61;20384;-63
2023/04/13 08:52:12;0.00;0.00;0.62;0.00;0.00;0.62;6.80;5.40;;;23.30;22.20;;;;;;2267625;61;20413;-63
2023/04/13 08:55:01;0.00;0.00;0.62;0.00;0.00;0.62;6.73;5.80;;;23.30;22.10;;;;;;2264983;61;20379;-63
2023/04/13 08:57:50;0.00;0.00;0.62;0.00;0.00;0.62;6.70;5.90;;;23.30;22.10;;;;;;2267942;61;20423;-62
2023/04/13 09:00:35;0.00;0.00;0.62;0.00;0.00;0.62;6.30;5.37;;;23.30;22.10;;;;;;2267200;61;20379;-62
2023/04/13 09:03:24;0.00;0.00;0.62;0.00;0.00;0.62;7.80;6.13;;;23.30;22.10;;;;;;2263602;61;20388;-61
2023/04/13 09:06:10;0.00;0.00;0.62;0.00;0.00;0.62;8.00;6.13;;;23.30;22.10;;;;;;2261261;61;20491;-62
2023/04/13 09:08:58;0.00;0.00;0.62;0.00;0.00;0.62;6.20;5.23;;;23.40;22.20;;;;;;2260464;61;20384;-63
2023/04/13 09:11:44;0.00;0.00;0.62;0.00;0.00;0.62;6.87;5.47;;;23.40;22.20;;;;;;2260863;61;20367;-63
2023/04/13 09:14:31;0.00;0.00;0.62;0.00;0.00;0.62;7.57;5.93;;;23.40;22.20;;;;;;2264010;61;20360;-63
2023/04/13 09:17:26;0.00;0.00;0.62;0.00;0.00;0.62;7.00;5.70;;;23.40;22.20;;;;;;2264074;61;20418;-64
2023/04/13 09:20:17;0.00;0.00;0.62;0.00;0.00;0.62;6.40;5.37;;;23.30;22.10;;;;;;2260671;61;20759;-62
2023/04/13 09:23:13;0.00;0.00;0.62;0.00;0.00;0.62;6.83;6.13;;;23.40;22.20;;;;;;2263672;61;20415;-61
2023/04/13 09:26:06;0.00;0.00;0.62;0.00;0.00;0.62;7.33;5.87;;;23.40;22.20;;;;;;2264149;61;20391;-71
2023/04/13 09:28:55;0.00;0.00;0.62;0.00;0.00;0.62;6.80;6.00;;;23.40;22.20;;;;;;2263734;61;20807;-64
2023/04/13 09:31:41;0.00;0.00;0.62;0.00;0.00;0.62;8.30;6.97;;;23.40;22.20;;;;;;2264041;61;20402;-61
2023/04/13 09:34:27;0.00;0.00;0.62;0.00;0.00;0.62;6.30;5.57;;;23.40;22.20;;;;;;2263940;61;20386;-62
2023/04/13 09:37:13;0.00;0.00;0.62;0.00;0.00;0.62;7.20;6.00;;;23.40;22.20;;;;;;2263722;61;20391;-62
2023/04/13 09:40:10;0.00;0.00;0.62;0.00;0.00;0.62;6.90;6.03;;;23.40;22.20;;;;;;2263559;61;20431;-63
2023/04/13 09:42:58;0.00;0.00;0.62;0.00;0.00;0.62;7.53;6.23;;;23.40;22.20;;;;;;2264166;61;20416;-63
2023/04/13 09:45:43;0.00;0.00;0.62;0.00;0.00;0.62;8.60;6.40;;;23.40;22.20;;;;;;2263928;61;20450;-62
2023/04/13 09:48:29;0.00;0.00;0.62;0.00;0.00;0.62;6.13;5.53;;;23.40;22.20;;;;;;2264002;61;20433;-60
2023/04/13 09:51:15;0.00;0.00;0.62;0.00;0.00;0.62;8.60;6.90;;;23.40;22.20;;;;;;2263612;61;20486;-63
2023/04/13 09:54:01;0.00;0.00;0.62;0.00;0.00;0.62;7.00;6.07;;;23.40;22.20;;;;;;2264102;61;20372;-62
2023/04/13 09:56:51;0.00;0.00;0.62;0.00;0.00;0.62;7.90;7.10;;;23.40;22.20;;;;;;2264117;61;20440;-63
2023/04/13 09:59:36;0.00;0.00;0.62;0.00;0.00;0.62;9.00;7.00;;;23.40;22.20;;;;;;2263673;61;20368;-63
2023/04/13 10:02:21;0.00;0.00;0.62;0.00;0.00;0.62;6.50;5.40;;;23.40;22.20;;;;;;2267009;61;20774;-62
2023/04/13 10:05:08;0.00;0.00;0.62;0.00;0.00;0.62;8.57;7.20;;;23.40;22.20;;;;;;2268189;61;20428;-62
2023/04/13 10:07:55;0.00;0.00;0.62;0.00;0.00;0.62;7.80;6.87;;;23.50;22.30;;;;;;2268145;61;20464;-60
2023/04/13 10:10:41;0.00;0.00;0.62;0.00;0.00;0.62;8.00;7.20;;;23.40;22.20;;;;;;2267308;61;20363;-63
2023/04/13 10:13:32;0.00;0.00;0.62;0.00;0.00;0.62;8.40;7.50;;;23.50;22.30;;;;;;2267822;61;20363;-62
2023/04/13 10:16:38;0.00;0.00;0.62;0.00;0.00;0.62;8.60;7.60;;;23.50;22.30;;;;;;2268080;61;20358;-62
2023/04/13 10:19:28;0.00;0.00;0.62;0.00;0.00;0.62;9.50;7.90;;;23.50;22.30;;;;;;2267707;61;20480;-61
2023/04/13 10:22:14;0.00;0.00;0.62;0.00;0.00;0.62;8.20;7.13;;;23.50;22.30;;;;;;2267689;61;20410;-62
2023/04/13 10:24:59;0.00;0.00;0.62;0.00;0.00;0.62;8.03;7.00;;;23.50;22.40;;;;;;2267938;61;20408;-60
2023/04/13 10:27:56;0.00;0.00;0.62;0.00;0.00;0.62;9.33;7.53;;;23.50;22.40;;;;;;2268182;61;20467;-62
2023/04/13 10:30:49;0.00;0.00;0.62;0.00;0.00;0.62;8.13;6.57;;;23.50;22.30;;;;;;2267232;61;20367;-61
2023/04/13 10:33:45;0.00;0.00;0.62;0.00;0.00;0.62;9.17;8.03;;;23.50;22.40;;;;;;2267779;61;20878;-62
2023/04/13 10:36:37;0.00;0.00;0.62;0.00;0.00;0.62;9.33;7.70;;;23.50;22.40;;;;;;2267936;61;20371;-63
2023/04/13 10:39:26;0.00;0.00;0.62;0.00;0.00;0.62;9.40;7.80;;;23.50;22.40;;;;;;2308733;40;20451;-63
2023/04/13 10:42:12;0.00;0.00;0.62;0.00;0.00;0.62;8.60;7.30;;;23.50;22.40;;;;;;2280386;60;20875;-61
2023/04/13 10:44:59;0.00;0.00;0.62;0.00;0.00;0.62;8.70;7.70;;;23.50;22.40;;;;;;2279736;60;20348;-62
2023/04/13 10:47:44;0.00;0.00;0.62;0.00;0.00;0.62;8.80;7.47;;;23.60;22.50;;;;;;2280094;60;20380;-62
2023/04/13 10:50:29;0.00;0.00;0.62;0.00;0.00;0.62;7.80;6.70;;;23.60;22.50;;;;;;2279733;60;20401;-63
2023/04/13 10:53:24;0.00;0.00;0.62;0.00;0.00;0.62;10.20;7.80;;;23.60;22.50;;;;;;2280050;60;20433;-61
2023/04/13 10:56:15;0.00;0.00;0.62;0.00;0.00;0.62;8.13;7.13;;;23.60;22.60;;;;;;2280345;60;20756;-64
2023/04/13 10:59:00;0.00;0.00;0.62;0.00;0.00;0.62;6.60;5.90;;;23.60;22.60;;;;;;2279392;60;20791;-66
2023/04/13 11:01:47;0.00;0.00;0.62;0.00;0.00;0.62;7.87;6.73;;;23.60;22.60;;;;;;2280415;60;20393;-66
2023/04/13 11:04:38;0.00;0.00;0.62;0.00;0.00;0.62;8.20;5.97;;;23.70;22.70;;;;;;2280200;60;20384;-65
2023/04/13 11:07:24;0.00;0.00;0.62;0.00;0.00;0.62;6.47;5.77;;;23.70;22.70;;;;;;2279640;60;20472;-56